Villa San Andres, Puerto Rico
Current Conditions -  °F | °C
As of 5:50 PM on Sunday 25 Jan 2015 (Local Time) from TJBQ Reporting Station
Scattered Clouds Scattered Clouds  
Wind Chill: 26°   Ceiling: Unl
Heat Index: 28°   Visibility: 10mi
Dew Point: 22°   Wind: 7mph
Humidity: 78%   Direction: 100°E
Pressure: 29.99"   Gusts: NA
Location:  18.2038°N, 67.1453°W
Report Text: TJBQ 252150Z 10006KT 10SM SCT025 26/22 A2999 RMK RWY08 ATIS V
Loading
Personal Weather Stations






























Interactive Weather Map New forecast layout! Learn more

10-Day Weather Forecast

Advertisements
Track Severe Weather on mobile